Time;durP1;ratioP1;P1;durP2;ratioP2;P2;SDS_P1;SDS_P2;PMS_P1;PMS_P2;Temp;Humidity;BMP_temperature;BMP_pressure;BME280_temperature;BME280_humidity;BME280_pressure;Samples;Min_cycle;Max_cycle;Signal;HPM_P1;HPM_P2
2023/06/08 00:01:25;;;;;;;6.90;6.40;;;20.00;69.80;;;;;;5071512;28;20457;-69
2023/06/08 00:03:54;;;;;;;7.77;7.10;;;20.00;69.70;;;;;;5063904;28;21225;-69
2023/06/08 00:06:23;;;;;;;7.23;6.60;;;20.00;69.70;;;;;;5067198;28;20572;-68
2023/06/08 00:08:51;;;;;;;7.37;6.77;;;20.00;69.80;;;;;;5054134;28;20503;-69
2023/06/08 00:11:21;;;;;;;7.00;6.50;;;20.10;69.60;;;;;;5070523;28;20471;-71
2023/06/08 00:13:49;;;;;;;6.93;6.23;;;20.30;69.20;;;;;;5055602;28;20924;-69
2023/06/08 00:16:18;;;;;;;7.13;6.60;;;20.40;68.90;;;;;;5065580;28;23486;-68
2023/06/08 00:18:46;;;;;;;7.80;7.00;;;20.40;68.60;;;;;;5068048;28;21008;-68
2023/06/08 00:21:15;;;;;;;6.63;6.10;;;20.40;68.70;;;;;;5070388;28;20469;-68
2023/06/08 00:23:44;;;;;;;6.93;6.47;;;20.40;68.70;;;;;;5068517;28;20466;-68
2023/06/08 00:26:13;;;;;;;7.40;6.80;;;20.50;68.40;;;;;;5070936;28;20473;-69
2023/06/08 00:28:45;;;;;;;7.63;7.03;;;20.60;68.20;;;;;;5069741;28;20627;-69
2023/06/08 00:31:15;;;;;;;7.67;7.17;;;20.60;68.20;;;;;;5070314;28;21026;-68
2023/06/08 00:33:43;;;;;;;7.03;6.43;;;20.60;68.40;;;;;;5063060;28;20462;-71
2023/06/08 00:36:13;;;;;;;11.03;6.97;;;20.60;68.50;;;;;;5061101;28;20472;-69
2023/06/08 00:38:43;;;;;;;6.87;6.37;;;20.40;69.00;;;;;;5070900;28;20456;-68
2023/06/08 00:41:11;;;;;;;7.03;6.53;;;20.40;69.20;;;;;;5070457;28;20457;-68
2023/06/08 00:43:39;;;;;;;7.60;7.00;;;20.20;69.70;;;;;;5071090;28;20457;-68
2023/06/08 00:46:10;;;;;;;7.20;6.50;;;20.10;70.10;;;;;;5070635;28;20941;-68
2023/06/08 00:48:39;;;;;;;6.50;6.00;;;20.10;70.20;;;;;;5071014;28;20434;-68
2023/06/08 00:51:09;;;;;;;8.30;7.60;;;20.00;70.50;;;;;;5071329;28;20889;-68
2023/06/08 00:53:38;;;;;;;7.70;7.10;;;19.90;71.00;;;;;;5071320;28;20479;-69
2023/06/08 00:56:07;;;;;;;8.37;7.77;;;19.90;71.30;;;;;;5070978;28;20932;-68
2023/06/08 00:58:37;;;;;;;8.23;7.63;;;19.90;71.50;;;;;;5070232;28;20507;-68
2023/06/08 01:01:12;;;;;;;7.30;6.70;;;19.80;71.30;;;;;;5069817;28;20434;-68
2023/06/08 01:03:45;;;;;;;6.80;6.20;;;19.70;71.50;;;;;;5054992;28;20558;-68
2023/06/08 01:06:16;;;;;;;7.37;6.67;;;19.70;70.80;;;;;;5067464;28;20463;-68
2023/06/08 01:08:55;;;;;;;7.80;7.10;;;19.70;70.70;;;;;;5064987;28;20465;-68
2023/06/08 01:11:43;;;;;;;6.97;6.47;;;19.70;70.80;;;;;;5068878;28;20460;-68
2023/06/08 01:14:25;;;;;;;7.43;6.80;;;19.70;70.60;;;;;;5050214;28;20768;-69
2023/06/08 01:17:00;;;;;;;7.53;6.90;;;19.70;70.80;;;;;;5049852;28;20486;-69
2023/06/08 01:19:49;;;;;;;7.93;7.33;;;19.70;70.50;;;;;;5050608;28;21125;-68
2023/06/08 01:22:22;;;;;;;7.37;6.77;;;19.70;70.60;;;;;;5051639;28;20441;-68
2023/06/08 01:24:59;;;;;;;7.93;7.33;;;19.70;70.80;;;;;;5051393;28;20450;-67
2023/06/08 01:27:36;;;;;;;8.60;7.80;;;19.70;71.40;;;;;;5049410;28;20485;-68
2023/06/08 01:30:06;;;;;;;8.10;7.37;;;19.70;71.80;;;;;;5066197;28;20924;-69
2023/06/08 01:32:35;;;;;;;10.80;8.40;;;19.70;71.80;;;;;;5069070;28;20517;-68
2023/06/08 01:35:03;;;;;;;8.67;8.00;;;19.70;72.00;;;;;;5069939;28;20485;-68
2023/06/08 01:37:39;;;;;;;8.77;7.87;;;19.70;72.00;;;;;;5068729;28;20463;-70
2023/06/08 01:40:13;;;;;;;8.20;7.50;;;19.70;72.20;;;;;;5069445;28;20463;-68
2023/06/08 01:42:46;;;;;;;8.50;7.80;;;19.60;71.10;;;;;;5068188;28;20435;-68
2023/06/08 01:45:21;;;;;;;7.60;7.00;;;19.50;71.20;;;;;;5049703;28;20446;-68
2023/06/08 01:47:53;;;;;;;7.80;7.20;;;19.40;71.70;;;;;;5065756;28;20979;-69
2023/06/08 01:50:22;;;;;;;7.40;6.90;;;19.30;72.00;;;;;;5070116;28;20456;-68
2023/06/08 01:52:51;;;;;;;8.00;7.40;;;19.30;71.80;;;;;;5068870;28;20836;-68
2023/06/08 01:55:22;;;;;;;8.00;7.40;;;19.30;71.60;;;;;;5070617;28;20476;-69
2023/06/08 01:57:51;;;;;;;8.63;7.83;;;19.20;71.70;;;;;;5069309;28;20448;-68
2023/06/08 02:00:21;;;;;;;7.53;6.93;;;19.20;71.60;;;;;;5064985;28;20476;-68
2023/06/08 02:02:49;;;;;;;7.27;6.57;;;19.10;71.50;;;;;;5070702;28;20452;-68
2023/06/08 02:05:19;;;;;;;6.57;6.07;;;19.10;70.80;;;;;;5070238;28;21215;-67
2023/06/08 02:07:48;;;;;;;6.93;6.37;;;18.90;70.50;;;;;;5067129;28;20997;-68
2023/06/08 02:10:17;;;;;;;7.47;6.87;;;18.90;70.30;;;;;;5069645;28;20460;-68
2023/06/08 02:12:46;;;;;;;6.90;6.30;;;19.00;70.20;;;;;;5070409;28;20446;-68
2023/06/08 02:15:15;;;;;;;7.47;6.77;;;19.00;70.10;;;;;;5069605;28;20456;-68
2023/06/08 02:17:45;;;;;;;6.80;6.30;;;19.00;70.10;;;;;;5070472;28;20506;-68
2023/06/08 02:20:14;;;;;;;7.83;7.13;;;19.00;70.20;;;;;;5069566;28;20451;-70
2023/06/08 02:22:42;;;;;;;6.30;5.80;;;19.10;69.90;;;;;;5066341;28;20471;-68
2023/06/08 02:25:12;;;;;;;6.77;6.17;;;19.10;69.50;;;;;;5051570;28;20604;-68
2023/06/08 02:27:43;;;;;;;7.10;6.50;;;19.00;69.30;;;;;;5064884;28;20474;-69
2023/06/08 02:30:15;;;;;;;7.03;6.50;;;18.90;69.30;;;;;;5068058;28;20450;-70
2023/06/08 02:32:45;;;;;;;6.90;6.37;;;18.80;69.60;;;;;;5069863;28;20530;-69
2023/06/08 02:35:15;;;;;;;6.07;5.57;;;18.60;70.00;;;;;;5068660;28;20503;-68
2023/06/08 02:37:46;;;;;;;6.73;6.20;;;18.60;70.20;;;;;;5068474;28;20559;-67
2023/06/08 02:40:14;;;;;;;7.00;6.50;;;18.30;71.00;;;;;;5072127;28;20791;-68
2023/06/08 02:42:43;;;;;;;8.50;7.37;;;18.10;71.70;;;;;;5072538;28;20450;-68
2023/06/08 02:45:16;;;;;;;9.27;8.47;;;18.20;71.80;;;;;;5072973;28;20808;-68
2023/06/08 02:47:44;;;;;;;7.20;6.60;;;18.30;71.80;;;;;;5068138;28;20497;-68
2023/06/08 02:50:12;;;;;;;7.23;6.60;;;18.30;71.60;;;;;;5070264;28;20439;-68
2023/06/08 02:52:41;;;;;;;7.87;7.20;;;18.40;71.40;;;;;;5064132;28;20495;-68
2023/06/08 02:55:09;;;;;;;7.30;6.70;;;18.40;71.00;;;;;;5059360;28;20469;-68
2023/06/08 02:57:38;;;;;;;7.07;6.47;;;18.40;71.10;;;;;;5065103;28;20458;-69
2023/06/08 03:00:12;;;;;;;10.10;6.37;;;18.50;70.90;;;;;;5086464;28;20588;-68
2023/06/08 03:02:59;;;;;;;7.20;6.60;;;18.70;70.30;;;;;;5070065;28;20497;-67
2023/06/08 03:05:29;;;;;;;8.10;7.50;;;18.80;70.00;;;;;;5059517;28;21005;-67
2023/06/08 03:07:59;;;;;;;8.00;7.40;;;18.80;69.90;;;;;;5065339;28;20561;-70
2023/06/08 03:10:28;;;;;;;8.13;7.43;;;18.70;70.10;;;;;;5068698;28;20484;-68
2023/06/08 03:12:56;;;;;;;7.40;6.70;;;18.40;70.70;;;;;;5069666;28;20450;-69
2023/06/08 03:15:25;;;;;;;8.73;8.03;;;18.30;71.40;;;;;;5069653;28;20478;-69
2023/06/08 03:18:01;;;;;;;8.27;7.47;;;18.10;72.10;;;;;;5072801;28;20454;-68
2023/06/08 03:20:30;;;;;;;8.03;7.33;;;18.00;72.40;;;;;;5069324;28;20478;-68
2023/06/08 03:23:07;;;;;;;7.43;6.73;;;17.80;72.60;;;;;;5071214;28;20462;-69
2023/06/08 03:25:39;;;;;;;7.00;6.50;;;17.70;72.70;;;;;;5070045;28;20871;-68
2023/06/08 03:28:10;;;;;;;7.77;7.17;;;17.60;73.10;;;;;;5068321;28;20585;-69
2023/06/08 03:30:41;;;;;;;8.57;7.50;;;17.50;73.20;;;;;;5070376;28;20491;-67
2023/06/08 03:33:15;;;;;;;7.97;7.33;;;17.40;73.50;;;;;;5071185;28;20465;-68
2023/06/08 03:35:54;;;;;;;7.70;7.10;;;17.40;73.50;;;;;;5068703;28;20580;-67
2023/06/08 03:38:27;;;;;;;8.60;7.80;;;17.50;73.40;;;;;;5063883;28;20454;-70
2023/06/08 03:41:01;;;;;;;9.30;8.50;;;17.70;73.10;;;;;;5071063;28;20461;-68
2023/06/08 03:43:32;;;;;;;9.07;8.17;;;17.70;73.50;;;;;;5068548;28;20498;-67
2023/06/08 03:46:05;;;;;;;9.00;8.10;;;17.70;73.80;;;;;;5070904;28;20537;-68
2023/06/08 03:48:37;;;;;;;7.83;7.23;;;17.70;73.80;;;;;;5069665;28;20470;-68
2023/06/08 03:51:22;;;;;;;8.50;7.37;;;17.60;73.40;;;;;;5071252;28;20454;-69
2023/06/08 03:53:54;;;;;;;8.73;8.00;;;17.60;73.80;;;;;;5070270;28;20981;-69
2023/06/08 03:56:28;;;;;;;10.63;9.03;;;17.60;74.00;;;;;;5072425;28;20454;-68
2023/06/08 03:58:57;;;;;;;8.43;7.63;;;17.60;74.10;;;;;;5068761;28;20465;-68
2023/06/08 04:01:30;;;;;;;9.23;8.37;;;17.60;73.80;;;;;;5069137;28;20462;-69
2023/06/08 04:04:06;;;;;;;8.70;8.00;;;17.60;73.60;;;;;;5068217;28;20486;-69
2023/06/08 04:06:38;;;;;;;8.13;7.53;;;17.70;73.30;;;;;;5050890;28;20451;-69
2023/06/08 04:09:06;;;;;;;9.60;8.70;;;17.70;73.20;;;;;;5066693;28;20508;-68
2023/06/08 04:11:35;;;;;;;9.30;8.60;;;17.90;73.20;;;;;;5068627;28;20501;-69
2023/06/08 04:14:04;;;;;;;10.47;8.90;;;18.00;72.50;;;;;;5069661;28;20541;-68
2023/06/08 04:16:36;;;;;;;9.70;8.80;;;18.20;72.30;;;;;;5063478;28;20461;-68
2023/06/08 04:19:09;;;;;;;9.33;8.43;;;18.40;72.00;;;;;;5069630;28;20458;-69
2023/06/08 04:21:39;;;;;;;10.00;9.20;;;18.50;71.90;;;;;;5069401;28;20455;-68
2023/06/08 04:24:10;;;;;;;10.50;9.43;;;18.60;71.60;;;;;;5076543;28;21141;-68
2023/06/08 04:26:40;;;;;;;9.20;8.40;;;18.70;71.50;;;;;;5060816;28;20451;-68
2023/06/08 04:29:09;;;;;;;9.00;8.30;;;18.80;71.50;;;;;;5068090;28;20492;-69
2023/06/08 04:31:39;;;;;;;8.73;8.03;;;18.90;71.10;;;;;;5066033;28;20545;-70
2023/06/08 04:34:10;;;;;;;7.87;7.00;;;18.80;71.60;;;;;;5056854;28;20524;-68
2023/06/08 04:36:42;;;;;;;8.63;7.40;;;19.10;71.90;;;;;;5063857;28;20485;-76
2023/06/08 04:39:10;;;;;;;7.10;6.60;;;19.60;71.20;;;;;;5061181;28;20475;-69
2023/06/08 04:41:41;;;;;;;8.77;6.00;;;20.10;69.90;;;;;;5060525;28;20481;-69
2023/06/08 04:44:13;;;;;;;7.47;6.63;;;20.60;68.30;;;;;;5061312;28;20485;-69
2023/06/08 04:46:43;;;;;;;6.87;6.17;;;21.10;66.70;;;;;;5062423;28;20558;-69
2023/06/08 04:49:14;;;;;;;7.33;6.73;;;21.50;65.60;;;;;;5070206;28;20975;-69
2023/06/08 04:51:46;;;;;;;6.50;6.00;;;21.90;64.50;;;;;;5071303;28;20802;-69
2023/06/08 04:54:15;;;;;;;7.10;6.60;;;22.20;63.80;;;;;;5067088;28;20469;-68
2023/06/08 04:56:45;;;;;;;7.80;5.90;;;22.50;63.30;;;;;;5067229;28;20458;-68
2023/06/08 04:59:13;;;;;;;10.27;9.47;;;22.70;63.00;;;;;;5060563;28;20562;-69
2023/06/08 05:01:41;;;;;;;7.20;6.53;;;22.80;62.20;;;;;;5050384;28;20508;-71
2023/06/08 05:04:11;;;;;;;7.53;6.83;;;22.70;62.60;;;;;;5060987;28;20456;-70
2023/06/08 05:06:40;;;;;;;8.20;7.50;;;22.60;62.70;;;;;;5058859;28;20457;-72
2023/06/08 05:09:08;;;;;;;9.07;8.20;;;22.60;62.60;;;;;;5063505;28;20489;-69
2023/06/08 05:11:36;;;;;;;6.10;5.60;;;22.10;63.80;;;;;;5070049;28;20798;-69
2023/06/08 05:14:10;;;;;;;8.20;7.50;;;22.10;64.30;;;;;;5070812;28;20871;-69
2023/06/08 05:16:40;;;;;;;8.83;8.00;;;22.20;64.20;;;;;;5070377;28;20814;-69
2023/06/08 05:19:14;;;;;;;9.40;7.80;;;22.10;64.20;;;;;;5069260;28;20474;-69
2023/06/08 05:21:45;;;;;;;8.13;7.47;;;21.90;65.10;;;;;;5068610;28;20459;-69
2023/06/08 05:24:19;;;;;;;7.77;7.13;;;21.60;65.90;;;;;;5070020;28;20442;-69
2023/06/08 05:26:48;;;;;;;8.17;7.47;;;21.50;66.30;;;;;;5066160;28;21070;-69
2023/06/08 05:29:20;;;;;;;8.07;7.47;;;21.50;66.10;;;;;;5067037;28;20473;-69
2023/06/08 05:31:50;;;;;;;7.37;6.83;;;21.30;66.30;;;;;;5068454;28;20449;-69
2023/06/08 05:34:19;;;;;;;6.60;6.00;;;21.30;66.70;;;;;;5067111;28;21176;-69
2023/06/08 05:36:48;;;;;;;9.80;8.90;;;21.40;66.50;;;;;;5068573;28;20445;-69
2023/06/08 05:39:18;;;;;;;7.80;7.20;;;21.60;65.90;;;;;;5068932;28;21024;-70
2023/06/08 05:41:51;;;;;;;8.30;7.50;;;21.70;65.80;;;;;;5068303;28;20461;-69
2023/06/08 05:44:20;;;;;;;7.90;7.30;;;21.70;65.80;;;;;;5065751;28;20506;-70
2023/06/08 05:46:48;;;;;;;8.50;7.80;;;21.50;66.10;;;;;;5053688;28;20458;-69
2023/06/08 05:49:16;;;;;;;7.70;7.10;;;21.60;66.20;;;;;;5050227;28;21246;-69
2023/06/08 05:51:49;;;;;;;8.10;7.40;;;21.50;66.40;;;;;;5067431;28;20496;-69
2023/06/08 05:54:17;;;;;;;8.03;6.40;;;21.60;66.40;;;;;;5070373;28;20514;-69
2023/06/08 05:56:45;;;;;;;6.90;6.37;;;21.80;66.00;;;;;;5070662;28;20456;-71
2023/06/08 05:59:18;;;;;;;6.50;5.37;;;22.00;65.40;;;;;;5050636;28;20434;-72
2023/06/08 06:01:47;;;;;;;7.03;6.43;;;22.30;65.20;;;;;;5062292;28;20945;-69
2023/06/08 06:04:16;;;;;;;7.60;7.00;;;22.50;64.50;;;;;;5070772;28;20465;-69
2023/06/08 06:07:03;;;;;;;6.30;5.80;;;22.70;64.10;;;;;;5068000;28;20518;-70
2023/06/08 06:09:32;;;;;;;7.43;6.83;;;22.90;63.40;;;;;;5060244;28;20486;-69
2023/06/08 06:12:01;;;;;;;8.77;7.97;;;23.10;63.30;;;;;;5060838;28;20457;-69
2023/06/08 06:14:37;;;;;;;6.30;5.80;;;23.20;63.30;;;;;;5066637;28;20465;-69
2023/06/08 06:17:06;;;;;;;6.40;6.00;;;23.30;62.50;;;;;;5070572;28;20461;-70
2023/06/08 06:19:37;;;;;;;6.77;6.27;;;23.50;62.20;;;;;;5073612;28;20458;-69
2023/06/08 06:22:10;;;;;;;6.97;6.47;;;23.60;62.10;;;;;;5067718;28;20466;-69
2023/06/08 06:24:39;;;;;;;6.40;5.90;;;23.70;62.10;;;;;;5066580;28;20861;-69
2023/06/08 06:27:07;;;;;;;7.43;6.67;;;23.80;61.90;;;;;;5065765;28;20451;-69
2023/06/08 06:29:36;;;;;;;6.23;5.83;;;23.90;61.60;;;;;;5062805;28;20486;-69
2023/06/08 06:32:04;;;;;;;6.50;5.90;;;24.00;61.60;;;;;;5063524;28;20465;-69
2023/06/08 06:34:33;;;;;;;6.93;6.33;;;24.00;61.20;;;;;;5067033;28;21051;-69
2023/06/08 06:37:01;;;;;;;7.20;6.67;;;24.10;61.10;;;;;;5087669;28;20803;-67
2023/06/08 06:39:31;;;;;;;6.77;6.20;;;24.10;61.00;;;;;;5062346;28;20529;-68
2023/06/08 06:42:00;;;;;;;7.07;6.40;;;24.20;61.20;;;;;;5068855;28;20448;-68
2023/06/08 06:44:36;;;;;;;6.40;5.80;;;24.20;61.70;;;;;;5070811;28;20972;-69
2023/06/08 06:47:06;;;;;;;6.70;6.03;;;24.20;61.20;;;;;;5071414;28;20441;-68
2023/06/08 06:49:36;;;;;;;6.80;6.07;;;24.30;61.50;;;;;;5070399;28;20468;-69
2023/06/08 06:52:05;;;;;;;7.00;6.40;;;24.30;61.00;;;;;;5068140;28;20541;-68
2023/06/08 06:54:34;;;;;;;6.30;5.80;;;24.40;61.40;;;;;;5066883;28;20454;-68
2023/06/08 06:57:03;;;;;;;8.10;7.50;;;24.40;61.80;;;;;;5070491;28;20448;-69
2023/06/08 06:59:31;;;;;;;17.50;6.37;;;24.40;62.00;;;;;;5070440;28;20443;-69
2023/06/08 07:01:59;;;;;;;6.63;6.20;;;24.40;61.30;;;;;;5064626;28;20487;-71
2023/06/08 07:04:28;;;;;;;6.97;6.47;;;24.40;60.80;;;;;;5056881;28;20465;-70
2023/06/08 07:06:56;;;;;;;6.40;5.90;;;24.50;61.40;;;;;;5066987;28;20453;-70
2023/06/08 07:09:25;;;;;;;9.93;9.03;;;24.60;61.00;;;;;;5066776;28;20511;-70
2023/06/08 07:11:55;;;;;;;7.30;6.80;;;24.60;61.60;;;;;;5064927;28;20518;-69
2023/06/08 07:14:41;;;;;;;6.40;6.00;;;24.60;61.40;;;;;;5059752;28;20454;-70
2023/06/08 07:17:11;;;;;;;7.63;7.13;;;24.70;61.80;;;;;;5057555;28;20462;-71
2023/06/08 07:19:40;;;;;;;7.50;6.90;;;24.70;61.50;;;;;;5055603;28;20545;-69
2023/06/08 07:22:09;;;;;;;7.20;6.60;;;24.70;60.90;;;;;;5053387;28;20444;-70
2023/06/08 07:24:51;;;;;;;6.53;6.03;;;24.70;60.70;;;;;;5090960;28;20460;-70
2023/06/08 07:27:41;;;;;;;7.50;6.93;;;24.80;60.50;;;;;;5053402;28;20451;-70
2023/06/08 07:30:10;;;;;;;7.73;7.23;;;24.80;60.40;;;;;;5057054;28;20472;-70
2023/06/08 07:32:38;;;;;;;8.57;7.90;;;24.90;61.50;;;;;;5053165;28;20465;-69
2023/06/08 07:35:07;;;;;;;6.93;6.43;;;24.80;61.10;;;;;;5053968;28;20571;-70
2023/06/08 07:37:36;;;;;;;7.43;6.83;;;24.80;60.90;;;;;;5057172;28;20455;-70
2023/06/08 07:40:07;;;;;;;7.87;7.27;;;24.90;60.80;;;;;;5055983;28;20522;-70
2023/06/08 07:42:36;;;;;;;9.57;8.87;;;24.90;60.50;;;;;;5058000;28;20452;-70
2023/06/08 07:45:06;;;;;;;7.90;7.30;;;24.90;61.00;;;;;;5054356;28;20465;-69
2023/06/08 07:47:35;;;;;;;8.57;7.87;;;24.90;60.90;;;;;;5068885;28;20458;-69
2023/06/08 07:50:05;;;;;;;10.67;9.87;;;25.00;60.60;;;;;;5068333;28;20550;-69
2023/06/08 07:52:34;;;;;;;8.00;7.40;;;25.00;61.50;;;;;;5073125;28;20479;-69
2023/06/08 07:55:02;;;;;;;7.77;7.20;;;25.00;60.40;;;;;;5066957;28;20456;-69
2023/06/08 07:57:32;;;;;;;8.37;7.67;;;25.00;60.50;;;;;;5068425;28;20465;-70
2023/06/08 08:00:00;;;;;;;8.43;7.93;;;25.10;60.80;;;;;;5061615;28;20461;-70
2023/06/08 08:02:40;;;;;;;8.00;7.40;;;25.10;60.40;;;;;;5062957;28;20814;-70
2023/06/08 08:05:09;;;;;;;8.37;7.77;;;25.10;60.20;;;;;;5059065;28;20468;-70
2023/06/08 08:07:39;;;;;;;8.40;7.80;;;25.20;60.10;;;;;;5059478;28;20456;-70
2023/06/08 08:10:08;;;;;;;8.33;7.63;;;25.20;60.10;;;;;;5066981;28;20444;-71
2023/06/08 08:12:37;;;;;;;7.80;7.20;;;25.20;60.00;;;;;;5072214;28;20458;-70
2023/06/08 08:15:06;;;;;;;8.40;7.80;;;25.20;60.00;;;;;;5060403;28;20454;-71
2023/06/08 08:17:35;;;;;;;9.10;8.50;;;25.30;60.00;;;;;;5052128;28;20474;-70
2023/06/08 08:20:07;;;;;;;10.57;9.70;;;25.30;60.00;;;;;;5051788;28;20447;-71
2023/06/08 08:22:36;;;;;;;8.60;7.90;;;25.30;60.10;;;;;;5059242;28;20455;-71
2023/06/08 08:25:05;;;;;;;8.73;8.13;;;25.30;59.90;;;;;;5059298;28;20485;-71
2023/06/08 08:27:34;;;;;;;8.23;7.57;;;25.30;59.90;;;;;;5061167;28;20459;-72
2023/06/08 08:30:03;;;;;;;7.47;6.87;;;25.30;59.80;;;;;;5059915;28;20457;-71
2023/06/08 08:32:32;;;;;;;8.50;7.80;;;25.30;59.80;;;;;;5060714;28;20478;-71
2023/06/08 08:35:00;;;;;;;7.63;7.13;;;25.30;59.90;;;;;;5059914;28;20547;-71
2023/06/08 08:37:31;;;;;;;7.27;6.87;;;25.30;59.90;;;;;;5060291;28;20449;-71
2023/06/08 08:39:59;;;;;;;11.90;10.97;;;25.40;59.70;;;;;;5061126;28;20457;-70
2023/06/08 08:42:31;;;;;;;8.60;8.00;;;25.40;59.90;;;;;;5057598;28;20481;-71
2023/06/08 08:45:00;;;;;;;11.40;10.50;;;25.30;59.80;;;;;;5059450;28;21003;-72
2023/06/08 08:47:30;;;;;;;8.97;8.07;;;25.40;59.80;;;;;;5059112;28;20545;-71
2023/06/08 08:50:04;;;;;;;7.87;7.27;;;25.30;59.90;;;;;;5060390;28;20458;-72
2023/06/08 08:52:37;;;;;;;8.70;8.10;;;25.40;59.90;;;;;;5062203;28;20467;-72
2023/06/08 08:55:06;;;;;;;8.33;7.73;;;25.40;59.70;;;;;;5059142;28;20470;-70
2023/06/08 08:57:46;;;;;;;8.40;7.80;;;25.40;59.40;;;;;;5062472;28;20464;-70
2023/06/08 09:00:16;;;;;;;8.20;7.60;;;25.50;59.50;;;;;;5058212;28;20478;-69
2023/06/08 09:02:45;;;;;;;9.80;8.97;;;25.50;59.50;;;;;;5058663;28;20465;-69
2023/06/08 09:05:14;;;;;;;8.23;7.63;;;25.50;59.30;;;;;;5061667;28;20476;-72
2023/06/08 09:07:43;;;;;;;7.87;7.27;;;25.50;59.30;;;;;;5060197;28;20454;-70
2023/06/08 09:10:17;;;;;;;8.57;7.87;;;25.50;59.30;;;;;;5060290;28;20459;-70
2023/06/08 09:12:47;;;;;;;9.27;8.63;;;25.50;59.30;;;;;;5058689;28;20491;-69
2023/06/08 09:15:26;;;;;;;8.07;7.53;;;25.50;59.30;;;;;;5059445;28;20466;-70
2023/06/08 09:17:55;;;;;;;8.40;7.80;;;25.50;59.30;;;;;;5060351;28;20453;-70
2023/06/08 09:20:28;;;;;;;9.00;8.23;;;25.50;59.30;;;;;;5054775;28;20462;-70
2023/06/08 09:22:57;;;;;;;8.70;7.97;;;25.60;59.30;;;;;;5086080;28;20574;-70
2023/06/08 09:25:38;;;;;;;8.47;7.87;;;25.60;59.30;;;;;;5059787;28;20565;-70
2023/06/08 09:28:24;;;;;;;8.30;7.60;;;25.60;59.10;;;;;;5053821;28;20461;-70
2023/06/08 09:30:56;;;;;;;8.10;7.60;;;25.60;59.20;;;;;;5065539;28;20540;-71
2023/06/08 09:33:27;;;;;;;8.73;8.13;;;25.60;59.10;;;;;;5067417;28;20438;-72
2023/06/08 09:36:08;;;;;;;8.00;7.50;;;25.60;59.20;;;;;;5071166;28;20481;-71
2023/06/08 09:38:38;;;;;;;8.40;7.80;;;25.60;59.10;;;;;;5068743;28;20936;-70
2023/06/08 09:41:16;;;;;;;7.90;7.27;;;25.60;59.20;;;;;;5056569;28;20473;-71
2023/06/08 09:43:46;;;;;;;8.40;7.70;;;25.60;59.00;;;;;;5046982;28;20464;-71
2023/06/08 09:46:32;;;;;;;8.50;7.87;;;25.70;59.10;;;;;;5060965;28;20461;-71
2023/06/08 09:49:03;;;;;;;9.20;8.30;;;25.70;58.40;;;;;;5062668;28;20497;-69
2023/06/08 09:51:34;;;;;;;8.63;8.03;;;25.60;58.90;;;;;;5069423;28;20477;-69
2023/06/08 09:54:05;;;;;;;8.60;7.90;;;25.60;59.00;;;;;;5070595;28;20457;-70
2023/06/08 09:56:36;;;;;;;8.30;7.70;;;25.60;58.40;;;;;;5066279;28;20536;-70
2023/06/08 09:59:08;;;;;;;8.67;8.00;;;25.60;58.50;;;;;;5070097;28;20446;-69
2023/06/08 10:01:42;;;;;;;9.17;8.47;;;25.60;57.20;;;;;;5066278;28;20455;-69
2023/06/08 10:04:21;;;;;;;8.10;7.50;;;25.60;58.50;;;;;;5070443;28;20464;-70
2023/06/08 10:06:54;;;;;;;8.73;8.13;;;25.60;57.70;;;;;;5062413;28;20786;-70
2023/06/08 10:09:28;;;;;;;8.67;8.07;;;25.60;57.30;;;;;;5066544;28;20460;-69
2023/06/08 10:12:01;;;;;;;8.33;7.73;;;25.60;57.70;;;;;;5069888;28;20810;-69
2023/06/08 10:14:30;;;;;;;9.10;8.40;;;25.60;57.70;;;;;;5065564;28;20970;-69
2023/06/08 10:16:59;;;;;;;7.90;7.37;;;25.60;56.00;;;;;;5066889;28;20450;-70
2023/06/08 10:19:27;;;;;;;8.67;8.07;;;25.50;57.10;;;;;;5060274;28;20458;-70
2023/06/08 10:21:57;;;;;;;8.37;7.67;;;25.60;57.70;;;;;;5067684;28;20803;-70
2023/06/08 10:24:29;;;;;;;8.60;7.90;;;25.60;56.40;;;;;;5063957;28;20461;-70
2023/06/08 10:27:11;;;;;;;8.67;7.97;;;25.60;57.60;;;;;;5066849;28;20469;-70
2023/06/08 10:29:39;;;;;;;8.33;7.63;;;25.60;57.60;;;;;;5063618;28;20875;-69
2023/06/08 10:32:11;;;;;;;7.80;7.20;;;25.60;58.00;;;;;;5066470;28;20524;-70
2023/06/08 10:34:40;;;;;;;6.73;6.23;;;25.60;56.30;;;;;;5070693;28;20524;-70
2023/06/08 10:37:28;;;;;;;7.27;6.77;;;25.60;55.80;;;;;;5068736;28;20533;-70
2023/06/08 10:39:59;;;;;;;6.70;6.07;;;25.60;55.80;;;;;;5061613;28;20540;-70
2023/06/08 10:42:28;;;;;;;7.43;6.93;;;25.70;54.90;;;;;;5070041;28;20471;-69
2023/06/08 10:44:57;;;;;;;7.10;6.60;;;25.60;53.90;;;;;;5070022;28;20491;-70
2023/06/08 10:47:26;;;;;;;6.50;6.10;;;25.60;54.40;;;;;;5055879;28;20552;-71
2023/06/08 10:50:01;;;;;;;6.70;6.20;;;25.70;54.30;;;;;;5059834;28;20454;-70
2023/06/08 10:52:39;;;;;;;7.70;6.90;;;25.70;54.50;;;;;;5069064;28;20571;-71
2023/06/08 10:55:11;;;;;;;6.47;6.03;;;25.80;55.60;;;;;;5062497;28;20462;-70
2023/06/08 10:57:42;;;;;;;7.10;6.50;;;25.80;56.50;;;;;;5054163;28;20496;-70
2023/06/08 11:00:44;;;;;;;7.90;6.90;;;25.90;56.00;;;;;;5051748;28;20513;-71
2023/06/08 11:03:18;;;;;;;7.83;7.20;;;25.90;55.80;;;;;;5055327;28;21231;-70
2023/06/08 11:05:52;;;;;;;8.00;7.40;;;26.00;56.20;;;;;;5058911;28;20953;-71
2023/06/08 11:08:21;;;;;;;7.50;6.90;;;26.00;54.50;;;;;;5057194;28;20449;-70
2023/06/08 11:10:56;;;;;;;7.57;6.87;;;26.10;55.00;;;;;;5059994;28;21018;-72
2023/06/08 11:13:24;;;;;;;7.00;6.50;;;26.00;55.80;;;;;;5070043;28;20470;-70
2023/06/08 11:15:52;;;;;;;6.80;6.30;;;26.10;55.50;;;;;;5063925;28;20506;-69
2023/06/08 11:18:21;;;;;;;7.83;7.17;;;26.10;54.90;;;;;;5064852;28;20447;-69
2023/06/08 11:20:53;;;;;;;7.17;6.67;;;26.20;54.10;;;;;;5071909;28;20846;-71
2023/06/08 11:23:22;;;;;;;6.47;5.97;;;26.20;53.70;;;;;;5073469;28;20534;-71
2023/06/08 11:25:51;;;;;;;7.00;6.10;;;26.30;53.90;;;;;;5062942;28;20450;-70
2023/06/08 11:28:22;;;;;;;6.60;6.10;;;26.30;53.50;;;;;;5054554;28;20470;-72
2023/06/08 11:30:53;;;;;;;5.97;5.47;;;26.30;51.60;;;;;;5053208;28;20550;-69
2023/06/08 11:33:23;;;;;;;6.10;5.50;;;26.40;50.90;;;;;;5062793;28;20594;-70
2023/06/08 11:35:52;;;;;;;6.40;5.90;;;26.50;51.50;;;;;;5058206;28;20971;-69
2023/06/08 11:38:23;;;;;;;6.40;5.80;;;26.50;51.40;;;;;;5070222;28;20458;-69
2023/06/08 11:40:52;;;;;;;7.47;6.60;;;26.50;52.00;;;;;;5064785;28;20462;-71
2023/06/08 11:43:23;;;;;;;6.20;5.73;;;26.50;52.50;;;;;;5063453;28;20517;-70
2023/06/08 11:45:51;;;;;;;6.40;5.70;;;26.50;53.00;;;;;;5081588;28;20554;-72
2023/06/08 11:48:23;;;;;;;5.97;5.57;;;26.60;51.20;;;;;;5098169;28;20816;-74
2023/06/08 11:50:51;;;;;;;6.73;6.00;;;26.60;50.70;;;;;;5052905;28;20444;-73
2023/06/08 11:53:22;;;;;;;6.20;5.80;;;26.60;50.50;;;;;;5056616;28;20635;-74
2023/06/08 11:55:54;;;;;;;6.50;5.90;;;26.70;51.40;;;;;;5065798;28;20477;-71
2023/06/08 11:58:28;;;;;;;6.33;5.80;;;26.70;49.40;;;;;;5062331;28;20462;-72
2023/06/08 12:01:07;;;;;;;6.57;6.10;;;26.70;51.00;;;;;;5060473;28;20464;-72
2023/06/08 12:03:43;;;;;;;6.40;5.90;;;26.70;51.30;;;;;;5067666;28;20480;-75
2023/06/08 12:06:13;;;;;;;6.13;5.73;;;26.80;49.50;;;;;;5059958;28;20548;-75
2023/06/08 12:08:41;;;;;;;7.03;6.30;;;26.80;49.80;;;;;;5057905;28;20549;-75
2023/06/08 12:11:11;;;;;;;6.20;5.60;;;26.80;49.90;;;;;;5054584;28;20964;-74
2023/06/08 12:13:42;;;;;;;6.43;5.83;;;26.90;50.40;;;;;;5060946;28;20472;-73
2023/06/08 12:16:11;;;;;;;6.00;5.50;;;26.90;50.60;;;;;;5062438;28;20496;-75
2023/06/08 12:18:41;;;;;;;6.67;6.03;;;27.00;51.00;;;;;;5053378;28;20455;-76
2023/06/08 12:21:13;;;;;;;6.60;6.00;;;27.00;52.60;;;;;;5054692;28;20462;-74
2023/06/08 12:23:43;;;;;;;6.40;5.90;;;27.10;52.80;;;;;;5060763;28;20461;-74
2023/06/08 12:26:12;;;;;;;6.67;5.93;;;27.10;53.20;;;;;;5050290;28;20464;-75
2023/06/08 12:28:43;;;;;;;6.43;6.00;;;27.30;51.80;;;;;;5060396;28;20507;-73
2023/06/08 12:31:12;;;;;;;6.10;5.60;;;27.30;53.30;;;;;;5057271;28;20540;-74
2023/06/08 12:33:41;;;;;;;6.50;6.10;;;27.30;53.30;;;;;;5062812;28;20489;-75
2023/06/08 12:36:10;;;;;;;7.43;6.57;;;27.30;53.30;;;;;;5061785;28;20449;-74
2023/06/08 12:38:39;;;;;;;9.33;6.60;;;27.20;53.70;;;;;;5065342;28;20450;-73
2023/06/08 12:41:07;;;;;;;7.63;6.97;;;27.10;53.60;;;;;;5053822;28;20541;-74
2023/06/08 12:43:41;;;;;;;7.40;6.70;;;27.10;53.60;;;;;;5057925;28;20970;-74
2023/06/08 12:46:10;;;;;;;8.37;5.80;;;27.10;51.30;;;;;;5059825;28;20455;-70
2023/06/08 12:48:40;;;;;;;6.77;6.27;;;27.00;52.40;;;;;;5064399;28;20976;-70
2023/06/08 12:51:08;;;;;;;6.43;6.00;;;27.00;53.20;;;;;;5062686;28;21013;-69
2023/06/08 12:53:36;;;;;;;7.63;7.00;;;27.00;53.10;;;;;;5066176;28;20475;-75
2023/06/08 12:56:05;;;;;;;6.57;5.90;;;27.00;52.30;;;;;;5057666;28;20531;-75
2023/06/08 12:58:34;;;;;;;6.13;5.63;;;26.80;52.70;;;;;;5056417;28;20514;-74
2023/06/08 13:01:02;;;;;;;5.67;5.27;;;26.70;52.40;;;;;;5055285;28;20468;-74
2023/06/08 13:03:32;;;;;;;6.00;5.50;;;26.60;52.60;;;;;;5060103;28;20449;-74
2023/06/08 13:06:00;;;;;;;6.00;5.50;;;26.60;53.00;;;;;;5069550;28;20449;-74